Portada
METAR-TAF:

METAR-TAF

Aeropuertos :

Aeropuerto de Tarbes-Lourdes-Pirineos

Tarbes Lourdes, Francia

latitud: 43-11N, longitud: 000-00W, altitud: 379 m

Observación

El informe se hizo hace 22 minutos, a las 23:30 UTC
Viento 4 kt del sur
Temperatura 7°C
Humedad 93%
Presión 1013 hPa
Visibilidad 10 km o más
Escasas nubes a una altura de 7800 ft
Cielo nuboso a una altura de 10000 ft

METAR: LFBT 312330Z AUTO 17004KT 9999 FEW078 BKN100 07/06 Q1013

Hora: 01:52 (23:52 UTC)


TAF: falta

Observaciones y pronósticos meteorológicos de más de 4000 aeropuertos (mensajes METAR y TAF).

Los puntos amarillos y rojos representan las estaciones disponibles.

Ponga el ratón en el punto deseado para ver el nombre de la estación.

Haga clic para ver las observaciones y los pronósticos meteorológicos.

Para cambiar el mapa : haga clic en los botones verdes con una cruz de color negro para hacer un zoom, en el botón verde con un guión para alejar o en las flechas verdes para mapas adyacentes.


METAR-TAF: